createdAt,value
2022-08-28T00:00:25.692Z,17.20
2022-08-28T00:02:53.722Z,17.30
2022-08-28T00:05:23.341Z,17.20
2022-08-28T00:07:50.658Z,17.10
2022-08-28T00:10:22.603Z,17.20
2022-08-28T00:12:51.404Z,17.20
2022-08-28T00:15:27.434Z,17.10
2022-08-28T00:17:54.409Z,17.30
2022-08-28T00:20:22.006Z,17.00
2022-08-28T00:22:49.844Z,16.70
2022-08-28T00:25:20.550Z,16.80
2022-08-28T00:27:53.081Z,17.10
2022-08-28T00:30:50.840Z,17.00
2022-08-28T00:33:27.977Z,17.00
2022-08-28T00:35:55.105Z,16.90
2022-08-28T00:38:23.127Z,17.50
2022-08-28T00:40:55.619Z,16.90
2022-08-28T00:43:31.950Z,16.80
2022-08-28T00:45:58.669Z,16.60
2022-08-28T00:48:25.456Z,16.70
2022-08-28T00:51:10.683Z,16.60
2022-08-28T00:53:37.630Z,16.70
2022-08-28T00:56:10.288Z,16.90
2022-08-28T00:58:42.592Z,17.00
2022-08-28T01:01:09.685Z,17.00
2022-08-28T01:03:37.556Z,17.10
2022-08-28T01:06:05.094Z,17.20
2022-08-28T01:08:34.079Z,17.10
2022-08-28T01:11:04.394Z,17.00
2022-08-28T01:13:32.464Z,17.10
2022-08-28T01:16:01.107Z,17.00
2022-08-28T01:18:28.757Z,17.20
2022-08-28T01:21:04.408Z,16.90
2022-08-28T01:23:51.724Z,17.00
2022-08-28T01:26:19.137Z,17.10
2022-08-28T01:28:46.105Z,17.20
2022-08-28T01:31:15.184Z,17.30
2022-08-28T01:33:43.028Z,17.40
2022-08-28T01:36:12.129Z,17.80
2022-08-28T01:38:41.095Z,17.20
2022-08-28T01:41:08.372Z,17.40
2022-08-28T01:43:35.263Z,17.20
2022-08-28T01:46:05.034Z,17.50
2022-08-28T01:48:36.226Z,17.50
2022-08-28T01:51:04.924Z,17.10
2022-08-28T01:53:33.138Z,17.00
2022-08-28T01:56:04.652Z,16.90
2022-08-28T01:58:36.067Z,16.90
2022-08-28T02:01:09.851Z,17.00
2022-08-28T02:03:36.617Z,17.10
2022-08-28T02:06:03.409Z,17.30
2022-08-28T02:08:30.156Z,17.10
2022-08-28T02:10:57.371Z,17.00
2022-08-28T02:13:25.740Z,17.30
2022-08-28T02:15:52.575Z,16.90
2022-08-28T02:18:19.468Z,17.20
2022-08-28T02:20:46.581Z,16.80
2022-08-28T02:23:13.785Z,17.50
2022-08-28T02:25:40.627Z,16.90
2022-08-28T02:28:07.548Z,17.30
2022-08-28T02:30:35.690Z,17.40
2022-08-28T02:33:02.557Z,16.90
2022-08-28T02:35:31.256Z,17.10
2022-08-28T02:38:00.401Z,17.30
2022-08-28T02:40:27.830Z,17.00
2022-08-28T02:42:54.633Z,17.00
2022-08-28T02:45:21.413Z,17.00
2022-08-28T02:47:51.367Z,17.30
2022-08-28T02:50:19.870Z,17.30
2022-08-28T02:52:46.854Z,17.30
2022-08-28T02:55:16.337Z,17.30
2022-08-28T02:57:43.492Z,17.60
2022-08-28T03:00:13.748Z,17.40
2022-08-28T03:02:42.087Z,17.40
2022-08-28T03:05:10.293Z,17.50
2022-08-28T03:07:37.084Z,17.30
2022-08-28T03:10:07.164Z,17.20
2022-08-28T03:12:34.833Z,17.20
2022-08-28T03:15:02.052Z,17.20
2022-08-28T03:17:28.838Z,17.30
2022-08-28T03:19:55.625Z,17.40
2022-08-28T03:22:42.422Z,17.40
2022-08-28T03:25:09.383Z,17.60
2022-08-28T03:27:36.144Z,17.40
2022-08-28T03:30:07.054Z,17.40
2022-08-28T03:32:34.176Z,17.30
2022-08-28T03:35:00.935Z,17.20
2022-08-28T03:37:27.830Z,17.40
2022-08-28T03:39:55.196Z,17.70
2022-08-28T03:42:22.097Z,17.40
2022-08-28T03:44:49.136Z,18.20
2022-08-28T03:47:16.939Z,17.40
2022-08-28T03:49:45.365Z,17.60
2022-08-28T03:52:12.620Z,17.50
2022-08-28T03:54:39.471Z,17.40
2022-08-28T03:57:07.615Z,17.60
2022-08-28T03:59:35.599Z,17.50
2022-08-28T04:02:02.395Z,18.20
2022-08-28T04:04:29.101Z,17.50
2022-08-28T04:06:55.827Z,17.70
2022-08-28T04:09:22.568Z,17.90
2022-08-28T04:11:49.225Z,17.80
2022-08-28T04:14:15.952Z,17.80
2022-08-28T04:16:43.008Z,17.70
2022-08-28T04:19:09.967Z,17.80
2022-08-28T04:21:36.846Z,17.50
2022-08-28T04:24:09.012Z,17.60
2022-08-28T04:26:36.948Z,17.40
2022-08-28T04:29:04.670Z,17.50
2022-08-28T04:31:32.847Z,18.20
2022-08-28T04:34:01.710Z,17.50
2022-08-28T04:36:29.046Z,17.80
2022-08-28T04:38:57.592Z,17.60
2022-08-28T04:41:24.309Z,17.60
2022-08-28T04:43:52.708Z,17.60
2022-08-28T04:46:19.581Z,17.60
2022-08-28T04:48:46.341Z,17.70
2022-08-28T04:51:15.070Z,17.60
2022-08-28T04:53:43.022Z,17.60
2022-08-28T04:56:12.685Z,17.60
2022-08-28T04:58:40.690Z,17.60
2022-08-28T05:01:18.780Z,17.50
2022-08-28T05:03:47.903Z,17.60
2022-08-28T05:06:16.316Z,17.60
2022-08-28T05:08:45.473Z,17.60
2022-08-28T05:11:33.448Z,17.80
2022-08-28T05:14:06.998Z,17.70
2022-08-28T05:16:40.885Z,17.70
2022-08-28T05:19:07.673Z,17.70
2022-08-28T05:21:34.421Z,17.70
2022-08-28T05:24:01.277Z,17.70
2022-08-28T05:26:29.684Z,17.70
2022-08-28T05:28:58.261Z,17.90
2022-08-28T05:31:25.866Z,17.60
2022-08-28T05:33:53.494Z,17.80
2022-08-28T05:36:22.743Z,17.70
2022-08-28T05:38:51.395Z,17.80
2022-08-28T05:41:23.951Z,17.70
2022-08-28T05:43:51.425Z,17.90
2022-08-28T05:46:18.386Z,17.80
2022-08-28T05:48:45.762Z,18.00
2022-08-28T05:51:14.591Z,17.90
2022-08-28T05:53:43.736Z,18.00
2022-08-28T05:56:13.484Z,17.90
2022-08-28T05:58:40.726Z,18.20
2022-08-28T06:01:19.801Z,18.10
2022-08-28T06:03:55.038Z,18.10
2022-08-28T06:06:24.769Z,17.90
2022-08-28T06:08:56.320Z,18.20
2022-08-28T06:11:30.505Z,18.20
2022-08-28T06:14:02.540Z,18.20
2022-08-28T06:16:31.382Z,18.40
2022-08-28T06:18:58.629Z,18.40
2022-08-28T06:21:25.372Z,18.50
2022-08-28T06:23:52.078Z,18.40
2022-08-28T06:26:19.014Z,18.40
2022-08-28T06:28:45.976Z,18.40
2022-08-28T06:31:23.277Z,18.40
2022-08-28T06:33:54.188Z,18.50
2022-08-28T06:36:21.467Z,18.90
2022-08-28T06:38:48.389Z,18.70
2022-08-28T06:41:15.770Z,18.50
2022-08-28T06:43:42.672Z,18.50
2022-08-28T06:46:09.667Z,18.90
2022-08-28T06:48:36.652Z,18.90
2022-08-28T06:51:07.292Z,18.70
2022-08-28T06:53:34.065Z,18.50
2022-08-28T06:56:16.207Z,18.60
2022-08-28T06:58:54.549Z,18.60
2022-08-28T07:01:25.569Z,18.60
2022-08-28T07:03:54.845Z,18.70
2022-08-28T07:06:23.396Z,18.60
2022-08-28T07:08:51.131Z,18.60
2022-08-28T07:11:26.366Z,18.50
2022-08-28T07:13:54.375Z,18.60
2022-08-28T07:16:24.231Z,18.50
2022-08-28T07:18:50.999Z,18.60
2022-08-28T07:21:17.860Z,18.60
2022-08-28T07:23:46.052Z,18.70
2022-08-28T07:26:16.261Z,18.70
2022-08-28T07:28:43.471Z,18.80
2022-08-28T07:31:26.133Z,18.90
2022-08-28T07:33:54.855Z,18.70
2022-08-28T07:36:29.599Z,18.70
2022-08-28T07:38:58.377Z,18.80
2022-08-28T07:41:28.787Z,18.90
2022-08-28T07:44:14.697Z,18.90
2022-08-28T07:46:41.681Z,18.90
2022-08-28T07:49:09.317Z,19.10
2022-08-28T07:51:36.489Z,19.40
2022-08-28T07:54:04.425Z,19.00
2022-08-28T07:56:31.554Z,18.90
2022-08-28T07:59:00.323Z,19.00
2022-08-28T08:01:30.650Z,19.00
2022-08-28T08:04:01.969Z,19.00
2022-08-28T08:06:33.881Z,19.20
2022-08-28T08:09:02.322Z,19.20
2022-08-28T08:11:32.570Z,19.40
2022-08-28T08:14:04.851Z,19.50
2022-08-28T08:16:38.644Z,19.70
2022-08-28T08:19:10.015Z,19.90
2022-08-28T08:21:37.673Z,20.10
2022-08-28T08:24:05.276Z,20.20
2022-08-28T08:26:33.102Z,20.40
2022-08-28T08:29:00.641Z,20.70
2022-08-28T08:31:32.660Z,20.90
2022-08-28T08:34:02.012Z,20.90
2022-08-28T08:36:31.017Z,21.10
2022-08-28T08:39:00.329Z,21.20
2022-08-28T08:41:43.582Z,21.20
2022-08-28T08:44:33.206Z,21.10
2022-08-28T08:47:14.762Z,21.00
2022-08-28T08:50:10.516Z,21.00
2022-08-28T08:52:55.887Z,20.80
2022-08-28T08:55:31.510Z,20.80
2022-08-28T08:58:11.290Z,20.70
2022-08-28T09:00:56.391Z,20.70
2022-08-28T09:03:27.716Z,20.60
2022-08-28T09:06:00.341Z,20.70
2022-08-28T09:08:50.483Z,20.80
2022-08-28T09:11:43.655Z,21.00
2022-08-28T09:14:48.062Z,21.00
2022-08-28T09:17:18.251Z,20.90
2022-08-28T09:19:45.321Z,20.80
2022-08-28T09:22:12.272Z,20.80
2022-08-28T09:24:41.345Z,20.50
2022-08-28T09:27:21.393Z,20.40
2022-08-28T09:30:14.956Z,20.20
2022-08-28T09:32:44.703Z,20.20
2022-08-28T09:35:30.684Z,20.00
2022-08-28T09:38:20.553Z,19.80
2022-08-28T09:41:08.341Z,19.70
2022-08-28T09:43:37.308Z,19.50
2022-08-28T09:46:19.710Z,19.40
2022-08-28T09:48:50.450Z,19.80
2022-08-28T09:51:23.415Z,19.60
2022-08-28T09:53:53.644Z,19.50
2022-08-28T09:56:25.692Z,19.40
2022-08-28T09:58:56.286Z,19.50
2022-08-28T10:01:44.549Z,19.50
2022-08-28T10:04:18.072Z,19.60
2022-08-28T10:06:54.939Z,19.70
2022-08-28T10:09:40.306Z,19.70
2022-08-28T10:12:42.594Z,19.60
2022-08-28T10:15:28.357Z,19.60
2022-08-28T10:18:13.970Z,19.80
2022-08-28T10:20:52.845Z,19.80
2022-08-28T10:23:39.250Z,19.80
2022-08-28T10:26:23.914Z,19.90
2022-08-28T10:29:11.821Z,20.00
2022-08-28T10:31:58.930Z,20.20
2022-08-28T10:34:46.716Z,20.40
2022-08-28T10:37:33.127Z,20.60
2022-08-28T10:40:09.099Z,20.70
2022-08-28T10:42:43.877Z,20.60
2022-08-28T10:45:22.770Z,20.60
2022-08-28T10:47:55.489Z,20.50
2022-08-28T10:50:40.569Z,20.40
2022-08-28T10:53:13.896Z,20.20
2022-08-28T10:56:04.241Z,20.20
2022-08-28T10:58:32.617Z,20.20
2022-08-28T11:01:03.174Z,20.20
2022-08-28T11:03:34.854Z,20.20
2022-08-28T11:06:31.396Z,20.30
2022-08-28T11:09:20.739Z,20.30
2022-08-28T11:11:48.902Z,20.30
2022-08-28T11:14:48.487Z,20.40
2022-08-28T11:17:25.309Z,20.40
2022-08-28T11:20:10.752Z,20.50
2022-08-28T11:22:40.468Z,20.40
2022-08-28T11:25:32.738Z,20.40
2022-08-28T11:28:20.068Z,20.50
2022-08-28T11:30:50.187Z,20.60
2022-08-28T11:33:47.810Z,21.10
2022-08-28T11:36:20.602Z,21.60
2022-08-28T11:38:57.046Z,22.00
2022-08-28T11:41:28.096Z,22.10
2022-08-28T11:44:11.085Z,22.10
2022-08-28T11:46:42.250Z,22.10
2022-08-28T11:49:26.872Z,22.00
2022-08-28T11:51:56.313Z,22.00
2022-08-28T11:54:55.518Z,22.00
2022-08-28T11:57:55.202Z,22.00
2022-08-28T12:00:50.430Z,22.10
2022-08-28T12:03:31.653Z,22.20
2022-08-28T12:06:00.419Z,22.20
2022-08-28T12:08:46.740Z,22.20
2022-08-28T12:11:39.581Z,22.20
2022-08-28T12:14:13.162Z,22.30
2022-08-28T12:16:58.678Z,22.40
2022-08-28T12:19:36.597Z,22.50
2022-08-28T12:22:20.521Z,22.60
2022-08-28T12:25:06.217Z,22.70
2022-08-28T12:27:38.630Z,22.90
2022-08-28T12:30:05.868Z,23.00
2022-08-28T12:32:40.943Z,23.20
2022-08-28T12:35:26.131Z,23.40
2022-08-28T12:37:55.965Z,23.50
2022-08-28T12:40:47.419Z,23.40
2022-08-28T12:43:21.704Z,23.30
2022-08-28T12:45:53.716Z,23.30
2022-08-28T12:48:33.138Z,23.50
2022-08-28T12:51:20.126Z,23.40
2022-08-28T12:53:50.712Z,23.20
2022-08-28T12:56:20.420Z,23.10
2022-08-28T12:58:47.714Z,22.90
2022-08-28T13:01:30.766Z,22.80
2022-08-28T13:04:18.452Z,22.80
2022-08-28T13:06:45.465Z,22.90
2022-08-28T13:09:22.322Z,23.00
2022-08-28T13:11:51.921Z,23.10
2022-08-28T13:14:44.656Z,23.10
2022-08-28T13:17:14.546Z,23.10
2022-08-28T13:19:41.696Z,23.00
2022-08-28T13:22:39.649Z,22.90
2022-08-28T13:25:08.074Z,22.90
2022-08-28T13:27:35.487Z,23.00
2022-08-28T13:30:28.261Z,23.10
2022-08-28T13:33:19.787Z,22.90
2022-08-28T13:35:46.741Z,22.60
2022-08-28T13:38:16.685Z,22.40
2022-08-28T13:40:57.963Z,22.30
2022-08-28T13:43:27.922Z,22.30
2022-08-28T13:45:54.710Z,22.30
2022-08-28T13:48:24.597Z,22.30
2022-08-28T13:50:58.605Z,22.30
2022-08-28T13:53:25.789Z,22.60
2022-08-28T13:55:53.024Z,22.90
2022-08-28T13:58:19.759Z,23.20
2022-08-28T14:00:49.708Z,23.30
2022-08-28T14:03:35.456Z,23.40
2022-08-28T14:06:11.689Z,23.30
2022-08-28T14:08:40.074Z,23.20
2022-08-28T14:11:07.493Z,23.10
2022-08-28T14:13:34.508Z,23.50
2022-08-28T14:16:05.534Z,24.80
2022-08-28T14:18:32.892Z,25.30
2022-08-28T14:20:59.602Z,25.70
2022-08-28T14:23:26.438Z,27.00
2022-08-28T14:25:53.152Z,27.90
2022-08-28T14:28:19.825Z,28.70
2022-08-28T14:30:48.995Z,29.40
2022-08-28T14:33:18.647Z,29.90
2022-08-28T14:35:46.773Z,30.30
2022-08-28T14:38:13.632Z,30.40
2022-08-28T14:40:42.871Z,30.50
2022-08-28T14:43:10.987Z,30.60
2022-08-28T14:45:49.527Z,30.50
2022-08-28T14:48:18.514Z,30.90
2022-08-28T14:50:47.798Z,31.00
2022-08-28T14:53:15.661Z,31.40
2022-08-28T14:55:48.499Z,31.20
2022-08-28T14:58:17.221Z,31.20
2022-08-28T15:00:49.686Z,30.80
2022-08-28T15:03:18.548Z,29.40
2022-08-28T15:05:46.173Z,28.00
2022-08-28T15:08:15.883Z,27.90
2022-08-28T15:10:43.581Z,28.00
2022-08-28T15:13:11.542Z,28.20
2022-08-28T15:15:39.624Z,29.10
2022-08-28T15:18:07.601Z,29.30
2022-08-28T15:20:46.335Z,28.40
2022-08-28T15:23:15.158Z,27.50
2022-08-28T15:25:42.171Z,26.60
2022-08-28T15:28:09.282Z,25.80
2022-08-28T15:30:37.456Z,25.40
2022-08-28T15:33:04.859Z,26.00
2022-08-28T15:35:34.185Z,26.30
2022-08-28T15:38:01.027Z,27.00
2022-08-28T15:40:46.212Z,27.70
2022-08-28T15:43:13.263Z,28.60
2022-08-28T15:45:41.096Z,29.70
2022-08-28T15:48:09.416Z,30.20
2022-08-28T15:50:36.227Z,29.80
2022-08-28T15:53:03.722Z,28.90
2022-08-28T15:55:34.157Z,28.00
2022-08-28T15:58:03.875Z,27.20
2022-08-28T16:00:32.124Z,26.80
2022-08-28T16:03:01.032Z,26.40
2022-08-28T16:05:39.641Z,25.90
2022-08-28T16:08:08.161Z,25.50
2022-08-28T16:10:35.221Z,25.60
2022-08-28T16:13:03.280Z,26.20
2022-08-28T16:15:30.082Z,26.50
2022-08-28T16:17:56.757Z,26.80
2022-08-28T16:20:25.103Z,26.90
2022-08-28T16:22:52.913Z,26.70
2022-08-28T16:25:19.696Z,26.70
2022-08-28T16:27:46.385Z,26.40
2022-08-28T16:30:15.725Z,26.20
2022-08-28T16:32:46.854Z,26.20
2022-08-28T16:35:15.725Z,26.00
2022-08-28T16:37:43.272Z,25.80
2022-08-28T16:40:10.946Z,25.40
2022-08-28T16:42:37.935Z,25.30
2022-08-28T16:45:06.161Z,25.10
2022-08-28T16:47:34.483Z,24.90
2022-08-28T16:50:05.864Z,24.80
2022-08-28T16:52:32.708Z,24.80
2022-08-28T16:54:59.978Z,24.60
2022-08-28T16:57:27.459Z,24.40
2022-08-28T16:59:54.537Z,24.20
2022-08-28T17:02:26.339Z,24.10
2022-08-28T17:04:55.195Z,23.90
2022-08-28T17:07:22.348Z,23.70
2022-08-28T17:09:49.154Z,23.90
2022-08-28T17:12:16.670Z,23.50
2022-08-28T17:14:43.886Z,23.30
2022-08-28T17:17:10.713Z,23.20
2022-08-28T17:19:38.356Z,23.20
2022-08-28T17:22:27.163Z,23.10
2022-08-28T17:24:54.706Z,23.00
2022-08-28T17:27:22.843Z,22.80
2022-08-28T17:29:50.626Z,22.70
2022-08-28T17:32:17.709Z,22.60
2022-08-28T17:34:44.767Z,22.40
2022-08-28T17:37:11.642Z,22.30
2022-08-28T17:39:38.421Z,22.30
2022-08-28T17:42:05.224Z,22.10
2022-08-28T17:44:31.945Z,22.10
2022-08-28T17:46:58.681Z,22.00
2022-08-28T17:49:26.880Z,22.00
2022-08-28T17:51:53.590Z,21.90
2022-08-28T17:54:24.360Z,21.80
2022-08-28T17:56:52.993Z,21.80
2022-08-28T17:59:20.817Z,21.70
2022-08-28T18:01:48.285Z,21.70
2022-08-28T18:04:23.197Z,21.50
2022-08-28T18:06:52.835Z,21.40
2022-08-28T18:09:19.629Z,21.40
2022-08-28T18:11:46.463Z,21.30
2022-08-28T18:14:13.501Z,21.20
2022-08-28T18:16:40.378Z,21.10
2022-08-28T18:19:09.580Z,21.10
2022-08-28T18:21:37.537Z,21.10
2022-08-28T18:24:04.566Z,21.00
2022-08-28T18:26:31.420Z,20.90
2022-08-28T18:28:58.475Z,20.90
2022-08-28T18:31:25.213Z,20.80
2022-08-28T18:33:52.150Z,20.80
2022-08-28T18:36:18.911Z,20.70
2022-08-28T18:38:47.076Z,20.60
2022-08-28T18:41:13.803Z,20.50
2022-08-28T18:43:41.978Z,20.40
2022-08-28T18:46:09.812Z,20.40
2022-08-28T18:48:37.793Z,20.20
2022-08-28T18:51:09.749Z,20.80
2022-08-28T18:53:37.507Z,20.20
2022-08-28T18:56:06.373Z,20.10
2022-08-28T18:58:33.873Z,20.00
2022-08-28T19:01:02.269Z,20.10
2022-08-28T19:03:29.692Z,20.00
2022-08-28T19:05:57.230Z,19.90
2022-08-28T19:08:25.232Z,19.90
2022-08-28T19:10:52.535Z,19.90
2022-08-28T19:13:19.705Z,19.80
2022-08-28T19:15:51.614Z,19.80
2022-08-28T19:18:19.274Z,19.50
2022-08-28T19:20:46.136Z,19.60
2022-08-28T19:23:17.273Z,19.50
2022-08-28T19:25:44.992Z,19.40
2022-08-28T19:28:11.661Z,19.40
2022-08-28T19:30:38.561Z,19.40
2022-08-28T19:33:05.867Z,19.40
2022-08-28T19:35:33.769Z,19.30
2022-08-28T19:38:01.089Z,19.30
2022-08-28T19:40:27.939Z,19.40
2022-08-28T19:42:54.747Z,19.30
2022-08-28T19:45:21.566Z,19.20
2022-08-28T19:47:48.449Z,19.20
2022-08-28T19:50:15.630Z,19.10
2022-08-28T19:52:43.468Z,19.20
2022-08-28T19:55:16.454Z,19.10
2022-08-28T19:57:43.176Z,19.10
2022-08-28T20:00:10.815Z,19.20
2022-08-28T20:02:37.567Z,18.80
2022-08-28T20:05:05.516Z,18.80
2022-08-28T20:07:32.337Z,18.70
2022-08-28T20:09:59.042Z,18.70
2022-08-28T20:12:26.287Z,18.70
2022-08-28T20:14:52.969Z,18.60
2022-08-28T20:17:19.749Z,18.50
2022-08-28T20:19:47.689Z,18.50
2022-08-28T20:22:15.254Z,18.60
2022-08-28T20:24:42.327Z,18.60
2022-08-28T20:27:09.084Z,18.60
2022-08-28T20:29:36.037Z,18.60
2022-08-28T20:32:03.671Z,18.60
2022-08-28T20:34:30.387Z,18.60
2022-08-28T20:36:57.067Z,18.50
2022-08-28T20:39:23.810Z,18.40
2022-08-28T20:41:50.943Z,18.50
2022-08-28T20:44:19.929Z,18.50
2022-08-28T20:46:51.192Z,18.40
2022-08-28T20:49:21.942Z,18.30
2022-08-28T20:52:00.837Z,18.20
2022-08-28T20:54:31.511Z,18.10
2022-08-28T20:57:01.897Z,18.00
2022-08-28T20:59:35.421Z,18.00
2022-08-28T21:02:06.853Z,17.90
2022-08-28T21:04:38.802Z,18.00
2022-08-28T21:07:06.053Z,17.70
2022-08-28T21:09:39.525Z,17.70
2022-08-28T21:12:19.851Z,17.70
2022-08-28T21:14:51.487Z,17.90
2022-08-28T21:17:28.975Z,17.60
2022-08-28T21:20:04.413Z,18.30
2022-08-28T21:22:31.877Z,17.60
2022-08-28T21:24:59.894Z,17.50
2022-08-28T21:27:26.985Z,17.60
2022-08-28T21:29:58.753Z,17.50
2022-08-28T21:32:26.592Z,17.80
2022-08-28T21:34:54.463Z,17.50
2022-08-28T21:37:21.700Z,17.90
2022-08-28T21:39:48.435Z,17.80
2022-08-28T21:42:15.366Z,18.20
2022-08-28T21:44:48.318Z,18.10
2022-08-28T21:47:19.883Z,18.00
2022-08-28T21:49:50.087Z,17.40
2022-08-28T21:52:18.431Z,17.50
2022-08-28T21:54:45.200Z,17.40
2022-08-28T21:57:12.058Z,17.70
2022-08-28T21:59:39.130Z,17.50
2022-08-28T22:02:06.200Z,17.60
2022-08-28T22:04:34.723Z,17.70
2022-08-28T22:07:01.628Z,17.70
2022-08-28T22:09:29.016Z,17.40
2022-08-28T22:11:55.725Z,17.20
2022-08-28T22:14:25.254Z,17.20
2022-08-28T22:16:52.095Z,17.30
2022-08-28T22:19:18.939Z,17.70
2022-08-28T22:22:04.409Z,17.30
2022-08-28T22:24:31.201Z,17.30
2022-08-28T22:26:57.944Z,17.10
2022-08-28T22:29:25.222Z,17.10
2022-08-28T22:31:52.708Z,17.10
2022-08-28T22:34:19.835Z,17.30
2022-08-28T22:36:47.003Z,17.40
2022-08-28T22:39:13.963Z,17.30
2022-08-28T22:41:41.629Z,17.20
2022-08-28T22:44:08.335Z,17.10
2022-08-28T22:46:35.894Z,17.40
2022-08-28T22:49:03.085Z,17.40
2022-08-28T22:51:30.012Z,17.40
2022-08-28T22:53:56.838Z,17.10
2022-08-28T22:56:23.888Z,17.30
2022-08-28T22:58:51.010Z,17.00
2022-08-28T23:01:20.956Z,17.20
2022-08-28T23:03:48.497Z,17.40
2022-08-28T23:06:15.473Z,17.40
2022-08-28T23:08:42.694Z,17.30
2022-08-28T23:11:10.596Z,17.50
2022-08-28T23:13:38.154Z,17.90
2022-08-28T23:16:06.120Z,17.10
2022-08-28T23:18:46.279Z,16.90
2022-08-28T23:21:22.126Z,17.50
2022-08-28T23:23:50.619Z,17.20
2022-08-28T23:26:18.154Z,16.90
2022-08-28T23:28:45.276Z,17.30
2022-08-28T23:31:12.204Z,17.10
2022-08-28T23:33:38.955Z,16.90
2022-08-28T23:36:06.241Z,17.70
2022-08-28T23:38:42.834Z,16.90
2022-08-28T23:41:10.805Z,17.20
2022-08-28T23:43:38.082Z,16.70
2022-08-28T23:46:05.182Z,16.80
2022-08-28T23:48:32.914Z,16.90
2022-08-28T23:50:59.852Z,17.20
2022-08-28T23:53:26.784Z,17.30
2022-08-28T23:55:54.172Z,16.90
2022-08-28T23:58:22.404Z,17.00
